Time;durP1;ratioP1;P1;durP2;ratioP2;P2;SDS_P1;SDS_P2;PMS_P1;PMS_P2;Temp;Humidity;BMP_temperature;BMP_pressure;BME280_temperature;BME280_humidity;BME280_pressure;Samples;Min_cycle;Max_cycle;Signal;HPM_P1;HPM_P2
2023/06/29 00:00:11;;;;;;;333.33;317.15;;;19.50;99.90;;;;;;5019535;28;20225;-64
2023/06/29 00:02:39;;;;;;;317.95;302.20;;;19.40;99.90;;;;;;5018234;28;20279;-65
2023/06/29 00:05:07;;;;;;;329.50;313.20;;;19.40;99.90;;;;;;5019837;28;20243;-65
2023/06/29 00:07:35;;;;;;;347.30;329.70;;;19.30;99.90;;;;;;5020558;28;20212;-64
2023/06/29 00:10:02;;;;;;;326.58;310.40;;;19.30;99.90;;;;;;5014301;28;20247;-66
2023/06/29 00:12:30;;;;;;;320.83;304.52;;;19.20;99.90;;;;;;5019647;28;20300;-65
2023/06/29 00:14:57;;;;;;;323.42;307.33;;;19.20;99.90;;;;;;5019541;28;20208;-66
2023/06/29 00:17:24;;;;;;;309.10;294.48;;;19.20;99.90;;;;;;5017185;28;20623;-65
2023/06/29 00:19:51;;;;;;;315.27;300.42;;;19.20;99.90;;;;;;5016640;28;20233;-66
2023/06/29 00:22:19;;;;;;;317.15;302.45;;;19.10;99.90;;;;;;5017974;28;20202;-64
2023/06/29 00:24:54;;;;;;;329.95;314.42;;;19.20;99.90;;;;;;5014160;28;20233;-65
2023/06/29 00:27:22;;;;;;;347.40;331.20;;;19.20;99.90;;;;;;5014814;28;20209;-65
2023/06/29 00:29:50;;;;;;;382.90;364.88;;;19.20;99.90;;;;;;5014875;28;20312;-66
2023/06/29 00:32:17;;;;;;;427.65;406.00;;;19.10;99.90;;;;;;5016560;28;20205;-65
2023/06/29 00:34:44;;;;;;;468.00;443.80;;;19.10;99.90;;;;;;5016059;28;20208;-65
2023/06/29 00:37:11;;;;;;;3.40;3.30;;;19.10;99.90;;;;;;5014514;28;20695;-64
2023/06/29 00:39:39;;;;;;;3.55;3.45;;;19.10;99.90;;;;;;5014067;28;20229;-65
2023/06/29 00:42:06;;;;;;;4.72;4.53;;;19.10;99.90;;;;;;5026216;28;20208;-65
2023/06/29 00:44:33;;;;;;;4.70;4.50;;;19.00;99.90;;;;;;5023084;28;20229;-66
2023/06/29 00:47:01;;;;;;;6.07;5.88;;;19.00;99.90;;;;;;5014766;28;20655;-65
2023/06/29 00:49:28;;;;;;;4.20;4.10;;;19.00;99.90;;;;;;5013295;28;20719;-67
2023/06/29 00:51:55;;;;;;;5.25;5.05;;;18.90;99.90;;;;;;5014175;28;20201;-65
2023/06/29 00:54:23;;;;;;;4.28;4.15;;;18.80;99.90;;;;;;5014834;28;20209;-66
2023/06/29 00:56:50;;;;;;;4.28;4.07;;;18.80;99.90;;;;;;5014736;28;20259;-65
2023/06/29 00:59:17;;;;;;;4.10;4.00;;;18.80;99.90;;;;;;5012572;28;20726;-64
2023/06/29 01:01:45;;;;;;;4.90;4.70;;;18.70;99.90;;;;;;5012194;28;20209;-65
2023/06/29 01:04:17;;;;;;;3.72;3.63;;;18.70;99.90;;;;;;5012879;28;20221;-65
2023/06/29 01:06:49;;;;;;;5.00;4.80;;;18.60;99.90;;;;;;5012973;28;20196;-64
2023/06/29 01:09:16;;;;;;;4.13;3.92;;;18.60;99.90;;;;;;5011810;28;20236;-63
2023/06/29 01:11:44;;;;;;;4.45;4.35;;;18.60;99.90;;;;;;5012423;28;20209;-65
2023/06/29 01:14:15;;;;;;;4.47;4.35;;;18.60;99.90;;;;;;5013268;28;20209;-65
2023/06/29 01:16:43;;;;;;;4.70;4.50;;;18.70;99.90;;;;;;5013706;28;20214;-62
2023/06/29 01:19:14;;;;;;;6.88;6.63;;;18.70;99.90;;;;;;5013571;28;20233;-65
2023/06/29 01:21:49;;;;;;;6.30;6.10;;;18.70;99.90;;;;;;5013540;28;20280;-65
2023/06/29 01:24:18;;;;;;;6.88;6.57;;;18.70;99.90;;;;;;5012336;28;20228;-64
2023/06/29 01:26:47;;;;;;;5.55;5.35;;;18.70;99.90;;;;;;5012709;28;20215;-65
2023/06/29 01:29:14;;;;;;;5.60;5.40;;;18.70;99.90;;;;;;5007185;28;20232;-66
2023/06/29 01:31:41;;;;;;;5.05;4.85;;;18.60;99.90;;;;;;5013716;28;20660;-65
2023/06/29 01:34:08;;;;;;;4.90;4.70;;;18.60;99.90;;;;;;5018420;28;20201;-65
2023/06/29 01:36:41;;;;;;;4.43;4.32;;;18.50;99.90;;;;;;5026535;28;20205;-65
2023/06/29 01:39:23;;;;;;;4.90;4.70;;;18.50;99.90;;;;;;5028658;28;20221;-66
2023/06/29 01:41:54;;;;;;;5.30;5.10;;;18.50;99.90;;;;;;5022026;28;20189;-64
2023/06/29 01:44:20;;;;;;;5.30;5.10;;;18.50;99.90;;;;;;5013944;28;20801;-65
2023/06/29 01:46:49;;;;;;;6.00;5.80;;;18.50;99.90;;;;;;5016128;28;20300;-64
2023/06/29 01:49:16;;;;;;;6.32;6.13;;;18.40;99.90;;;;;;5014620;28;20610;-65
2023/06/29 01:51:42;;;;;;;6.65;6.45;;;18.50;99.90;;;;;;5012005;28;20216;-65
2023/06/29 01:54:09;;;;;;;7.05;6.85;;;18.50;99.90;;;;;;5012599;28;20679;-64
2023/06/29 01:56:36;;;;;;;8.98;8.68;;;18.50;99.90;;;;;;5012910;28;20209;-65
2023/06/29 01:59:04;;;;;;;10.40;10.00;;;18.50;99.90;;;;;;5011864;28;20229;-63
2023/06/29 02:01:31;;;;;;;10.80;10.40;;;18.50;99.90;;;;;;5011296;28;20579;-65
2023/06/29 02:03:58;;;;;;;10.40;10.00;;;18.50;99.90;;;;;;5011276;28;20247;-65
2023/06/29 02:06:25;;;;;;;10.10;9.70;;;18.60;99.90;;;;;;5011765;28;20300;-66
2023/06/29 02:08:52;;;;;;;9.80;9.40;;;18.60;99.90;;;;;;5011814;28;20221;-65
2023/06/29 02:11:19;;;;;;;7.47;7.18;;;18.60;99.90;;;;;;5011058;28;20296;-65
2023/06/29 02:13:47;;;;;;;7.35;6.85;;;18.60;99.90;;;;;;5011825;28;20204;-64
2023/06/29 02:16:15;;;;;;;4.30;4.15;;;18.60;99.90;;;;;;5011610;28;20213;-64
2023/06/29 02:18:42;;;;;;;4.78;4.57;;;18.60;99.90;;;;;;5011376;28;20210;-66
2023/06/29 02:21:09;;;;;;;7.40;7.10;;;18.50;99.90;;;;;;5010565;28;20229;-64
2023/06/29 02:23:36;;;;;;;5.90;5.70;;;18.50;99.90;;;;;;5011167;28;20319;-64
2023/06/29 02:26:02;;;;;;;213.13;199.40;;;18.50;99.90;;;;;;5011159;28;20205;-66
2023/06/29 02:28:29;;;;;;;5.32;5.13;;;18.50;99.90;;;;;;5011424;28;20668;-66
2023/06/29 02:30:56;;;;;;;3.85;3.72;;;18.50;99.90;;;;;;5011811;28;20300;-66
2023/06/29 02:33:24;;;;;;;28.38;27.17;;;18.40;99.90;;;;;;5012237;28;20683;-64
2023/06/29 02:35:51;;;;;;;6.10;5.90;;;18.40;99.90;;;;;;5011951;28;20702;-64
2023/06/29 02:38:18;;;;;;;6.82;6.63;;;18.20;99.90;;;;;;5011943;28;20295;-63
2023/06/29 02:40:45;;;;;;;6.03;5.82;;;18.20;99.90;;;;;;5011806;28;20257;-64
2023/06/29 02:43:14;;;;;;;4.32;4.13;;;18.20;99.90;;;;;;5014873;28;20251;-66
2023/06/29 02:45:40;;;;;;;335.30;309.55;;;18.20;99.90;;;;;;5014086;28;20307;-65
2023/06/29 02:48:07;;;;;;;42.80;40.75;;;18.10;99.90;;;;;;5013465;28;20209;-65
2023/06/29 02:50:35;;;;;;;245.52;227.40;;;18.10;99.90;;;;;;5013275;28;20232;-65
2023/06/29 02:53:02;;;;;;;4.88;4.68;;;18.00;99.90;;;;;;5012316;28;20196;-64
2023/06/29 02:55:31;;;;;;;650.35;393.20;;;18.00;99.90;;;;;;5012915;28;20742;-66
2023/06/29 02:57:58;;;;;;;167.38;155.70;;;18.00;99.90;;;;;;5012910;28;20240;-66
2023/06/29 03:00:25;;;;;;;5.00;4.78;;;18.00;99.90;;;;;;5012334;28;20255;-66
2023/06/29 03:02:52;;;;;;;2.50;2.40;;;18.00;99.90;;;;;;5016034;28;20276;-65
2023/06/29 03:05:19;;;;;;;2.53;2.42;;;17.90;99.90;;;;;;5018651;28;20229;-64
2023/06/29 03:07:47;;;;;;;255.82;239.20;;;17.90;99.90;;;;;;5023974;28;20213;-65
2023/06/29 03:10:13;;;;;;;4.82;4.63;;;17.90;99.90;;;;;;5016109;28;20222;-66
2023/06/29 03:12:41;;;;;;;770.17;498.67;;;17.90;99.90;;;;;;5011561;28;20205;-67
2023/06/29 03:15:09;;;;;;;420.27;387.75;;;18.00;99.90;;;;;;5011218;28;20211;-66
2023/06/29 03:17:35;;;;;;;669.75;390.13;;;18.00;99.90;;;;;;5011209;28;20260;-65
2023/06/29 03:20:02;;;;;;;49.60;47.38;;;18.10;99.90;;;;;;5011078;28;20229;-67
2023/06/29 03:22:29;;;;;;;976.72;614.25;;;18.10;99.90;;;;;;5021735;28;20201;-66
2023/06/29 03:24:57;;;;;;;108.78;103.07;;;18.20;99.90;;;;;;5023035;28;20235;-65
2023/06/29 03:27:24;;;;;;;153.48;146.98;;;18.20;99.90;;;;;;5016157;28;20579;-64
2023/06/29 03:29:53;;;;;;;84.93;81.53;;;18.20;99.90;;;;;;5011637;28;20267;-64
2023/06/29 03:32:20;;;;;;;1067.53;562.30;;;18.20;99.90;;;;;;5012178;28;20682;-64
2023/06/29 03:34:47;;;;;;;192.18;183.85;;;18.10;99.90;;;;;;5011930;28;20197;-65
2023/06/29 03:37:13;;;;;;;768.83;504.35;;;18.10;99.90;;;;;;5013346;28;20209;-65
2023/06/29 03:39:40;;;;;;;37.35;36.00;;;18.10;99.90;;;;;;5015440;28;20359;-66
2023/06/29 03:42:09;;;;;;;53.33;51.30;;;18.10;99.90;;;;;;5011256;28;20215;-65
2023/06/29 03:44:36;;;;;;;49.65;47.83;;;18.10;99.90;;;;;;5011395;28;20217;-66
2023/06/29 03:47:03;;;;;;;56.40;54.30;;;18.00;99.90;;;;;;5013446;28;20209;-65
2023/06/29 03:49:30;;;;;;;35.40;34.15;;;18.10;99.90;;;;;;5024031;28;20240;-64
2023/06/29 03:51:56;;;;;;;62.47;60.25;;;18.10;99.90;;;;;;5010047;28;20316;-64
2023/06/29 03:54:23;;;;;;;38.17;36.75;;;18.10;99.90;;;;;;5010745;28;20202;-65
2023/06/29 03:56:50;;;;;;;28.38;27.38;;;18.10;99.90;;;;;;5010202;28;20235;-62
2023/06/29 03:59:18;;;;;;;28.85;27.85;;;18.00;99.90;;;;;;5009191;28;20731;-64
2023/06/29 04:01:45;;;;;;;27.73;26.73;;;18.00;99.90;;;;;;5010222;28;20216;-65
2023/06/29 04:04:12;;;;;;;36.83;35.47;;;18.00;99.90;;;;;;5010120;28;20229;-64
2023/06/29 04:06:39;;;;;;;37.60;36.30;;;17.90;99.90;;;;;;5018332;28;20215;-65
2023/06/29 04:09:05;;;;;;;33.95;32.75;;;17.90;99.90;;;;;;5009749;28;20285;-64
2023/06/29 04:11:32;;;;;;;32.45;31.25;;;17.90;99.90;;;;;;5011688;28;20211;-65
2023/06/29 04:13:59;;;;;;;37.03;35.63;;;17.90;99.90;;;;;;5010816;28;20229;-65
2023/06/29 04:16:27;;;;;;;41.13;39.63;;;17.90;99.90;;;;;;5014014;28;20215;-65
2023/06/29 04:18:54;;;;;;;42.53;40.97;;;18.00;99.90;;;;;;5013566;28;20235;-66
2023/06/29 04:21:21;;;;;;;33.45;32.25;;;18.00;99.90;;;;;;5012827;28;20598;-64
2023/06/29 04:23:48;;;;;;;31.20;30.10;;;18.10;99.90;;;;;;5015063;28;20208;-65
2023/06/29 04:26:15;;;;;;;41.72;40.22;;;18.10;99.90;;;;;;5014673;28;20213;-64
2023/06/29 04:28:44;;;;;;;35.75;34.47;;;18.20;99.90;;;;;;5018018;28;20204;-64
2023/06/29 04:31:11;;;;;;;35.60;34.33;;;18.20;99.90;;;;;;5012781;28;20255;-66
2023/06/29 04:33:40;;;;;;;23.58;22.73;;;18.20;99.90;;;;;;5010568;28;20209;-63
2023/06/29 04:36:07;;;;;;;24.55;23.65;;;18.30;99.90;;;;;;5012304;28;20225;-64
2023/06/29 04:38:34;;;;;;;23.58;22.77;;;18.50;99.90;;;;;;5013773;28;20683;-65
2023/06/29 04:41:04;;;;;;;25.48;24.58;;;18.40;99.90;;;;;;5016913;28;20215;-66
2023/06/29 04:43:30;;;;;;;25.63;24.73;;;18.50;99.90;;;;;;5017209;28;20216;-66
2023/06/29 04:45:59;;;;;;;27.83;26.83;;;18.50;99.90;;;;;;5010538;28;20221;-67
2023/06/29 04:48:29;;;;;;;27.33;26.33;;;18.60;99.90;;;;;;5014971;28;20205;-64
2023/06/29 04:51:05;;;;;;;30.80;29.50;;;18.60;99.90;;;;;;5006824;28;20286;-64
2023/06/29 04:53:32;;;;;;;29.55;28.40;;;18.60;99.90;;;;;;5015493;28;20224;-64
2023/06/29 04:56:02;;;;;;;34.17;32.97;;;18.60;99.90;;;;;;5015784;28;20660;-64
2023/06/29 04:58:29;;;;;;;49.65;47.85;;;18.60;99.90;;;;;;5009880;28;20584;-59
2023/06/29 05:00:56;;;;;;;56.28;54.28;;;18.90;99.90;;;;;;5015565;28;20219;-59
2023/06/29 05:03:24;;;;;;;104.25;100.47;;;19.50;99.90;;;;;;5017527;28;20296;-59
2023/06/29 05:05:51;;;;;;;121.22;116.68;;;20.00;99.90;;;;;;5019157;28;20248;-59
2023/06/29 05:08:20;;;;;;;122.88;118.32;;;20.20;99.90;;;;;;5021423;28;20233;-59
2023/06/29 05:10:46;;;;;;;94.57;91.18;;;20.40;99.90;;;;;;5026570;28;20308;-60
2023/06/29 05:13:13;;;;;;;106.63;102.82;;;20.70;99.90;;;;;;5021712;28;20213;-59
2023/06/29 05:15:40;;;;;;;111.40;107.40;;;21.00;99.90;;;;;;5015459;28;20205;-59
2023/06/29 05:18:07;;;;;;;98.63;95.07;;;21.20;99.90;;;;;;5014270;28;20212;-60
2023/06/29 05:20:34;;;;;;;100.22;96.63;;;21.40;99.90;;;;;;5013636;28;20715;-58
2023/06/29 05:23:01;;;;;;;99.38;95.80;;;21.40;99.90;;;;;;5014258;28;20215;-59
2023/06/29 05:25:29;;;;;;;93.80;90.40;;;21.60;99.90;;;;;;5014361;28;20596;-59
2023/06/29 05:27:56;;;;;;;55.22;53.22;;;21.60;99.90;;;;;;5014433;28;20741;-59
2023/06/29 05:30:23;;;;;;;69.05;66.55;;;21.70;99.90;;;;;;5019462;28;20320;-64
2023/06/29 05:32:51;;;;;;;67.07;64.53;;;21.80;99.90;;;;;;5016670;28;20213;-64
2023/06/29 05:35:18;;;;;;;74.22;71.47;;;21.80;99.90;;;;;;5013786;28;20228;-65
2023/06/29 05:37:47;;;;;;;65.05;62.70;;;21.70;99.90;;;;;;5015918;28;20236;-65
2023/06/29 05:40:15;;;;;;;65.85;63.47;;;21.70;99.90;;;;;;5014593;28;20336;-65
2023/06/29 05:42:43;;;;;;;56.45;54.40;;;21.80;99.90;;;;;;5012443;28;20205;-65
2023/06/29 05:45:10;;;;;;;52.00;50.08;;;22.00;99.90;;;;;;5013108;28;20228;-65
2023/06/29 05:47:37;;;;;;;46.92;45.20;;;22.10;99.90;;;;;;5012566;28;20210;-65
2023/06/29 05:50:05;;;;;;;44.20;42.53;;;22.30;99.90;;;;;;5033528;22;20231;-63
2023/06/29 05:52:33;;;;;;;41.05;39.55;;;22.50;99.90;;;;;;5050127;28;20315;-63
2023/06/29 05:55:00;;;;;;;41.85;40.35;;;22.70;99.90;;;;;;5049857;28;20692;-63
2023/06/29 05:57:27;;;;;;;40.78;39.33;;;22.80;99.90;;;;;;5050141;28;20200;-63
2023/06/29 05:59:55;;;;;;;35.10;33.80;;;22.90;99.90;;;;;;5049564;28;20227;-64
2023/06/29 06:02:22;;;;;;;43.65;42.05;;;22.90;99.90;;;;;;5049319;28;20261;-64
2023/06/29 06:04:49;;;;;;;32.58;31.38;;;22.90;99.90;;;;;;5051364;28;20227;-64
2023/06/29 06:07:27;;;;;;;30.65;29.55;;;22.80;99.90;;;;;;5051165;28;20208;-64
2023/06/29 06:09:54;;;;;;;31.15;30.05;;;22.70;99.90;;;;;;5050017;28;20234;-63
2023/06/29 06:12:21;;;;;;;32.67;31.48;;;22.50;99.90;;;;;;5050544;28;20578;-64
2023/06/29 06:14:47;;;;;;;35.53;34.20;;;22.50;99.90;;;;;;5050584;28;20610;-63
2023/06/29 06:17:16;;;;;;;34.60;33.30;;;22.50;99.90;;;;;;5050936;28;20212;-65
2023/06/29 06:19:43;;;;;;;36.85;35.53;;;22.50;99.90;;;;;;5051209;28;20307;-63
2023/06/29 06:22:10;;;;;;;33.90;32.60;;;22.50;99.90;;;;;;5051668;28;20511;-63
2023/06/29 06:24:37;;;;;;;36.05;34.72;;;22.40;99.90;;;;;;5049969;28;20299;-64
2023/06/29 06:27:05;;;;;;;37.35;35.90;;;22.50;99.90;;;;;;5050909;28;20287;-65
2023/06/29 06:29:32;;;;;;;37.05;35.75;;;22.60;99.90;;;;;;5049589;28;20705;-65
2023/06/29 06:31:59;;;;;;;34.00;32.80;;;22.60;99.90;;;;;;5050519;28;20222;-64
2023/06/29 06:34:30;;;;;;;33.15;31.95;;;22.70;99.90;;;;;;5049447;28;20303;-63
2023/06/29 06:36:58;;;;;;;31.73;30.52;;;22.60;99.90;;;;;;5052310;28;20212;-63
2023/06/29 06:39:24;;;;;;;34.38;32.97;;;22.60;99.90;;;;;;5050181;28;20214;-63
2023/06/29 06:41:51;;;;;;;38.30;36.90;;;22.60;99.90;;;;;;5053572;28;20226;-64
2023/06/29 06:44:19;;;;;;;38.15;36.70;;;22.70;99.90;;;;;;5052595;28;20210;-63
2023/06/29 06:46:46;;;;;;;36.78;35.47;;;22.70;99.90;;;;;;5053777;28;20220;-63
2023/06/29 06:49:13;;;;;;;35.83;34.45;;;22.90;99.90;;;;;;5052125;28;20210;-63
2023/06/29 06:51:41;;;;;;;34.75;33.53;;;22.80;99.90;;;;;;5050742;28;20222;-63
2023/06/29 06:54:08;;;;;;;36.10;34.80;;;22.80;99.90;;;;;;5055446;28;20214;-63
2023/06/29 06:56:37;;;;;;;145.70;139.60;;;22.80;99.90;;;;;;5050168;28;20208;-63
2023/06/29 06:59:04;;;;;;;65.10;62.53;;;22.70;99.90;;;;;;5049356;28;20269;-64
2023/06/29 07:01:31;;;;;;;30.95;29.75;;;22.60;99.90;;;;;;5049983;28;20267;-63
2023/06/29 07:03:57;;;;;;;27.55;26.55;;;22.50;99.90;;;;;;5049602;28;20690;-65
2023/06/29 07:06:24;;;;;;;26.23;25.30;;;22.60;99.90;;;;;;5049238;28;20226;-63
2023/06/29 07:08:52;;;;;;;25.80;24.90;;;22.70;99.90;;;;;;5050979;28;20208;-63
2023/06/29 07:11:19;;;;;;;26.75;25.75;;;22.50;99.90;;;;;;5050878;28;20377;-63
2023/06/29 07:13:46;;;;;;;25.90;25.00;;;22.50;99.90;;;;;;5051517;28;20208;-63
2023/06/29 07:16:13;;;;;;;25.60;24.70;;;22.40;99.90;;;;;;5054916;28;20267;-64
2023/06/29 07:18:47;;;;;;;22.70;21.80;;;22.60;99.90;;;;;;5055464;28;20215;-65
2023/06/29 07:21:14;;;;;;;24.88;23.98;;;22.80;99.90;;;;;;5053620;28;20720;-65
2023/06/29 07:23:40;;;;;;;31.80;30.67;;;23.10;99.90;;;;;;5050483;28;20207;-65
2023/06/29 07:26:09;;;;;;;27.73;26.73;;;23.30;99.90;;;;;;5051422;28;20227;-63
2023/06/29 07:28:35;;;;;;;29.50;28.40;;;23.40;99.90;;;;;;5051475;28;20200;-64
2023/06/29 07:31:02;;;;;;;28.45;27.45;;;23.60;99.90;;;;;;5052261;28;20231;-63
2023/06/29 07:33:30;;;;;;;28.60;27.60;;;23.70;99.90;;;;;;5050493;28;20214;-64
2023/06/29 07:35:57;;;;;;;28.38;27.38;;;23.80;99.90;;;;;;5049930;28;20211;-64
2023/06/29 07:38:23;;;;;;;28.95;27.95;;;24.00;99.90;;;;;;5049507;28;20241;-64
2023/06/29 07:40:50;;;;;;;29.95;28.85;;;24.10;99.90;;;;;;5050172;28;20223;-63
2023/06/29 07:43:18;;;;;;;31.65;30.48;;;24.00;99.90;;;;;;5048337;28;20196;-64
2023/06/29 07:45:45;;;;;;;29.23;28.13;;;23.80;99.90;;;;;;5051284;28;20303;-65
2023/06/29 07:48:12;;;;;;;29.45;28.38;;;23.60;99.90;;;;;;5054109;28;20231;-65
2023/06/29 07:50:39;;;;;;;31.30;30.17;;;23.70;99.90;;;;;;5054004;28;20291;-65
2023/06/29 07:53:06;;;;;;;34.80;33.50;;;23.90;99.90;;;;;;5054968;28;20228;-64
2023/06/29 07:55:34;;;;;;;35.97;34.67;;;24.20;99.90;;;;;;5056063;28;20700;-65
2023/06/29 07:58:01;;;;;;;35.38;34.10;;;24.50;99.90;;;;;;5052755;28;20223;-67
2023/06/29 08:00:29;;;;;;;35.97;34.65;;;24.60;99.90;;;;;;5049704;28;20568;-64
2023/06/29 08:02:56;;;;;;;34.60;33.38;;;24.60;99.90;;;;;;5052187;28;20212;-65
2023/06/29 08:05:23;;;;;;;34.03;32.80;;;24.60;99.90;;;;;;5055834;28;20228;-65
2023/06/29 08:07:50;;;;;;;32.13;30.92;;;24.70;99.90;;;;;;5053595;28;20696;-63
2023/06/29 08:10:17;;;;;;;28.90;27.80;;;24.50;99.90;;;;;;5052614;28;20360;-64
2023/06/29 08:12:44;;;;;;;27.92;26.92;;;24.50;99.90;;;;;;5053341;28;20208;-64
2023/06/29 08:15:11;;;;;;;24.52;23.63;;;24.70;99.90;;;;;;5055993;28;20219;-64
2023/06/29 08:17:40;;;;;;;27.70;26.70;;;24.80;99.90;;;;;;5052630;28;20204;-64
2023/06/29 08:20:10;;;;;;;31.88;30.65;;;24.80;99.90;;;;;;5051996;28;20774;-65
2023/06/29 08:22:38;;;;;;;41.88;40.28;;;24.80;99.90;;;;;;5052605;28;20971;-63
2023/06/29 08:25:06;;;;;;;36.45;35.10;;;24.60;99.90;;;;;;5053162;28;20243;-64
2023/06/29 08:27:33;;;;;;;36.58;35.08;;;24.50;99.90;;;;;;5052766;28;20239;-63
2023/06/29 08:30:00;;;;;;;38.22;36.83;;;24.40;99.90;;;;;;5051974;28;20760;-63
2023/06/29 08:32:26;;;;;;;34.60;33.30;;;24.50;99.90;;;;;;5053434;28;20204;-64
2023/06/29 08:34:55;;;;;;;34.40;33.10;;;24.70;99.90;;;;;;5051812;28;20214;-63
2023/06/29 08:37:21;;;;;;;34.88;33.58;;;24.80;99.90;;;;;;5051741;28;20649;-64
2023/06/29 08:39:48;;;;;;;37.00;35.60;;;24.90;99.90;;;;;;5052034;28;20239;-65
2023/06/29 08:42:15;;;;;;;34.30;33.00;;;25.00;99.90;;;;;;5051234;28;20214;-65
2023/06/29 08:44:42;;;;;;;35.92;34.53;;;25.00;99.90;;;;;;5051896;28;20210;-65
2023/06/29 08:47:11;;;;;;;42.80;41.15;;;25.00;99.90;;;;;;5053027;28;20539;-65
2023/06/29 08:49:41;;;;;;;36.33;34.92;;;25.10;99.90;;;;;;5051185;28;20705;-64
2023/06/29 08:52:13;;;;;;;37.33;35.90;;;25.10;99.90;;;;;;5051537;28;20214;-66
2023/06/29 08:54:40;;;;;;;34.88;33.58;;;25.30;99.90;;;;;;5051953;28;20208;-64
2023/06/29 08:57:08;;;;;;;36.35;34.92;;;25.40;99.90;;;;;;5051769;28;20716;-64
2023/06/29 08:59:36;;;;;;;32.08;30.88;;;25.60;99.90;;;;;;5051828;28;20235;-66
2023/06/29 09:02:04;;;;;;;35.25;33.90;;;25.60;99.90;;;;;;5050620;28;20642;-64
2023/06/29 09:04:31;;;;;;;31.33;30.13;;;25.80;99.90;;;;;;5052095;28;20204;-64
2023/06/29 09:06:58;;;;;;;31.23;30.05;;;26.20;99.90;;;;;;5052191;28;20227;-64
2023/06/29 09:09:26;;;;;;;42.25;40.60;;;26.20;99.90;;;;;;5050843;28;20757;-64
2023/06/29 09:11:55;;;;;;;40.13;38.58;;;26.20;99.90;;;;;;5052603;28;20218;-64
2023/06/29 09:14:23;;;;;;;48.13;46.33;;;26.10;99.90;;;;;;5052908;28;20565;-63
2023/06/29 09:16:51;;;;;;;56.78;54.60;;;26.00;99.90;;;;;;5050847;28;20318;-65
2023/06/29 09:19:19;;;;;;;59.78;57.53;;;26.00;99.90;;;;;;5051706;28;20262;-63
2023/06/29 09:21:47;;;;;;;66.47;63.95;;;26.40;99.90;;;;;;5051804;28;20250;-63
2023/06/29 09:24:14;;;;;;;60.47;58.20;;;26.70;99.90;;;;;;5051648;28;20277;-65
2023/06/29 09:26:42;;;;;;;60.75;58.45;;;26.70;99.90;;;;;;5051527;28;20263;-63
2023/06/29 09:29:09;;;;;;;73.90;71.00;;;26.70;99.90;;;;;;5051342;28;20295;-63
2023/06/29 09:31:38;;;;;;;92.15;88.72;;;26.80;99.90;;;;;;5052158;28;20223;-65
2023/06/29 09:34:18;;;;;;;90.30;86.82;;;27.00;99.90;;;;;;5052159;28;20222;-65
2023/06/29 09:36:45;;;;;;;83.55;80.43;;;27.10;99.90;;;;;;5053569;28;20269;-63
2023/06/29 09:39:12;;;;;;;79.47;76.47;;;27.30;99.90;;;;;;5063254;28;20222;-63
2023/06/29 09:41:48;;;;;;;78.25;75.25;;;27.40;99.90;;;;;;5063437;28;20203;-66
2023/06/29 09:44:16;;;;;;;94.72;91.15;;;27.80;99.90;;;;;;5065316;28;20231;-64
2023/06/29 09:46:44;;;;;;;103.65;99.72;;;28.10;99.90;;;;;;5062813;28;20219;-64
2023/06/29 09:49:11;;;;;;;103.28;99.40;;;28.10;99.90;;;;;;5055451;28;20204;-64
2023/06/29 09:51:39;;;;;;;122.82;118.07;;;28.10;99.90;;;;;;5056925;28;20606;-64
2023/06/29 09:54:06;;;;;;;119.47;114.85;;;28.20;99.90;;;;;;5055016;28;20261;-63
2023/06/29 09:56:34;;;;;;;128.18;123.15;;;28.40;99.90;;;;;;5052380;28;20212;-64
2023/06/29 09:59:03;;;;;;;133.05;127.85;;;28.60;99.90;;;;;;5051634;28;20215;-63
2023/06/29 10:01:31;;;;;;;131.48;126.38;;;28.70;99.90;;;;;;5050671;28;20338;-64
2023/06/29 10:03:58;;;;;;;59.67;57.47;;;28.50;99.90;;;;;;5050659;28;20215;-64
2023/06/29 10:06:32;;;;;;;59.20;57.03;;;28.30;99.90;;;;;;5051692;28;20236;-64
2023/06/29 10:09:01;;;;;;;55.63;53.58;;;28.20;99.90;;;;;;5051402;28;20192;-64
2023/06/29 10:11:29;;;;;;;56.47;54.38;;;28.10;99.90;;;;;;5050678;28;20323;-64
2023/06/29 10:14:01;;;;;;;62.72;60.38;;;28.10;99.90;;;;;;5050777;28;20208;-64
2023/06/29 10:16:33;;;;;;;49.63;47.83;;;28.10;99.90;;;;;;5050719;28;20219;-64
2023/06/29 10:19:14;;;;;;;55.38;53.30;;;28.30;99.90;;;;;;5050023;28;20222;-64
2023/06/29 10:21:42;;;;;;;52.72;50.78;;;28.30;99.90;;;;;;5050218;28;20204;-64
2023/06/29 10:24:11;;;;;;;52.03;50.10;;;28.40;99.90;;;;;;5050421;28;20216;-65
2023/06/29 10:26:38;;;;;;;52.53;50.55;;;28.40;99.90;;;;;;5049878;28;20265;-64
2023/06/29 10:29:09;;;;;;;59.55;57.25;;;28.50;99.90;;;;;;5048437;28;20212;-63
2023/06/29 10:31:37;;;;;;;53.35;51.35;;;28.40;99.90;;;;;;5051074;28;20277;-64
2023/06/29 10:34:07;;;;;;;53.75;51.72;;;28.30;99.90;;;;;;5051197;28;20211;-65
2023/06/29 10:36:45;;;;;;;53.88;51.80;;;28.30;99.90;;;;;;5051603;28;20299;-65
2023/06/29 10:39:41;;;;;;;58.63;56.35;;;28.40;99.90;;;;;;5051211;28;20195;-64
2023/06/29 10:42:13;;;;;;;56.45;54.25;;;28.40;99.90;;;;;;5056155;28;20204;-65
2023/06/29 10:44:40;;;;;;;65.50;63.00;;;28.40;99.90;;;;;;5050649;28;20207;-64
2023/06/29 10:47:26;;;;;;;62.17;59.85;;;28.50;99.90;;;;;;5049766;28;20235;-64
2023/06/29 10:50:17;;;;;;;58.03;55.83;;;28.70;99.90;;;;;;5051250;28;20259;-64
2023/06/29 10:52:45;;;;;;;61.55;59.22;;;28.90;99.90;;;;;;5050857;28;20195;-64
2023/06/29 10:55:15;;;;;;;103.50;99.32;;;28.70;99.90;;;;;;5052673;28;20224;-66
2023/06/29 10:57:45;;;;;;;62.53;60.20;;;28.60;99.90;;;;;;5051616;28;20250;-65
2023/06/29 11:00:14;;;;;;;61.58;59.28;;;28.50;99.90;;;;;;5049658;28;20230;-65
2023/06/29 11:02:42;;;;;;;68.65;66.05;;;28.60;99.90;;;;;;5049409;28;20773;-65
2023/06/29 11:05:13;;;;;;;82.18;79.05;;;28.50;99.90;;;;;;5050272;28;20211;-65
2023/06/29 11:07:41;;;;;;;88.78;85.38;;;28.50;99.90;;;;;;5050057;28;20231;-65
2023/06/29 11:10:09;;;;;;;71.60;68.82;;;28.50;99.90;;;;;;5048414;28;20235;-65
2023/06/29 11:12:38;;;;;;;68.82;66.22;;;28.20;99.90;;;;;;5050838;28;20200;-65
2023/06/29 11:15:12;;;;;;;70.75;68.03;;;28.20;99.90;;;;;;5051418;28;20204;-64
2023/06/29 11:17:39;;;;;;;73.20;70.45;;;28.20;99.90;;;;;;5062509;28;20271;-64
2023/06/29 11:20:12;;;;;;;64.88;62.45;;;28.30;99.90;;;;;;5061653;28;20228;-64
2023/06/29 11:22:39;;;;;;;63.42;61.05;;;28.40;99.90;;;;;;5061773;28;20188;-64
2023/06/29 11:25:07;;;;;;;71.18;68.53;;;28.40;99.90;;;;;;5049737;28;20238;-64
2023/06/29 11:27:34;;;;;;;65.45;63.00;;;28.50;99.90;;;;;;5049993;28;20263;-64
2023/06/29 11:30:02;;;;;;;76.50;73.63;;;28.70;99.90;;;;;;5048642;28;20709;-65
2023/06/29 11:32:31;;;;;;;81.22;78.15;;;28.90;99.90;;;;;;5048492;28;20257;-64
2023/06/29 11:34:58;;;;;;;76.65;73.75;;;28.80;99.90;;;;;;5049281;28;20203;-64
2023/06/29 11:37:26;;;;;;;80.40;77.30;;;28.80;99.90;;;;;;5049005;28;20204;-64
2023/06/29 11:39:53;;;;;;;82.63;79.50;;;28.60;99.90;;;;;;5048949;28;20596;-64
2023/06/29 11:42:22;;;;;;;78.53;75.53;;;28.50;99.90;;;;;;5055729;28;20291;-64
2023/06/29 11:44:49;;;;;;;71.00;68.32;;;28.50;99.90;;;;;;5048712;28;20299;-66
2023/06/29 11:47:16;;;;;;;72.25;69.55;;;28.40;99.90;;;;;;5049035;28;20274;-65
2023/06/29 11:49:45;;;;;;;71.10;68.45;;;28.30;99.90;;;;;;5048170;28;20613;-65
2023/06/29 11:52:12;;;;;;;81.07;78.05;;;28.30;99.90;;;;;;5049120;28;20200;-65
2023/06/29 11:57:12;;;;;;;74.38;71.60;;;28.60;99.90;;;;;;5021952;28;20275;-66
2023/06/29 11:59:39;;;;;;;78.18;75.28;;;28.90;99.90;;;;;;5029676;28;20292;-66
2023/06/29 12:02:08;;;;;;;105.65;101.65;;;29.00;99.90;;;;;;5031841;28;20209;-67
2023/06/29 12:04:35;;;;;;;49.92;48.00;;;29.10;99.90;;;;;;5033983;28;20242;-66
2023/06/29 12:07:02;;;;;;;41.30;39.80;;;29.10;99.90;;;;;;5032164;28;20220;-66
2023/06/29 12:09:29;;;;;;;45.63;43.92;;;29.20;99.90;;;;;;5031950;28;20230;-67
2023/06/29 12:11:57;;;;;;;49.88;48.08;;;29.40;99.90;;;;;;5035054;28;20208;-66
2023/06/29 12:14:28;;;;;;;47.72;45.97;;;29.60;99.90;;;;;;5033294;28;20299;-66
2023/06/29 12:16:57;;;;;;;44.65;43.03;;;29.70;99.90;;;;;;5031250;28;20224;-67
2023/06/29 12:19:27;;;;;;;42.55;41.00;;;29.70;99.90;;;;;;5031171;28;20274;-65
2023/06/29 12:21:54;;;;;;;37.53;36.17;;;29.70;99.90;;;;;;5030440;28;20201;-65
2023/06/29 12:24:20;;;;;;;41.35;39.85;;;29.80;99.90;;;;;;5032071;28;20293;-66
2023/06/29 12:26:47;;;;;;;39.28;37.88;;;29.80;99.90;;;;;;5043870;28;20228;-67
2023/06/29 12:29:14;;;;;;;39.17;37.78;;;29.90;99.90;;;;;;5045144;28;20200;-67
2023/06/29 12:31:42;;;;;;;39.67;38.28;;;30.00;99.90;;;;;;5034521;28;20220;-65
2023/06/29 12:34:09;;;;;;;40.25;38.78;;;30.00;99.90;;;;;;5029224;28;20211;-67